createdAt,value
2022-09-12T03:56:34.519Z,100230.31
2022-09-12T03:59:37.959Z,100223.47
2022-09-12T04:02:40.477Z,100228.75
2022-09-12T04:05:43.252Z,100223.19
2022-09-12T04:08:50.510Z,100230.91
2022-09-12T04:11:53.256Z,100232.97
2022-09-12T04:14:55.756Z,100236.47
2022-09-12T04:18:02.405Z,100234.00
2022-09-12T04:21:10.917Z,100231.69
2022-09-12T04:24:13.909Z,100231.22
2022-09-12T04:27:16.463Z,100232.28
2022-09-12T04:30:19.308Z,100239.41
2022-09-12T04:33:22.175Z,100234.16
2022-09-12T04:36:26.353Z,100235.22
2022-09-12T04:39:28.881Z,100236.91
2022-09-12T04:42:31.676Z,100233.22
2022-09-12T04:45:34.117Z,100230.53
2022-09-12T04:48:37.582Z,100230.34
2022-09-12T04:51:42.225Z,100229.69
2022-09-12T04:54:45.068Z,100230.53
2022-09-12T04:57:47.823Z,100238.47
2022-09-12T05:00:50.577Z,100235.34
2022-09-12T05:03:53.660Z,100240.78
2022-09-12T05:06:56.540Z,100242.25
2022-09-12T05:09:59.110Z,100235.62
2022-09-12T05:13:01.836Z,100247.50
2022-09-12T05:16:05.855Z,100237.34
2022-09-12T05:19:11.404Z,100239.84
2022-09-12T05:22:14.236Z,100241.34
2022-09-12T05:25:17.154Z,100249.91
2022-09-12T05:28:21.311Z,100246.59
2022-09-12T05:31:26.291Z,100251.19
2022-09-12T05:34:28.760Z,100260.59
2022-09-12T05:37:31.433Z,100275.03
2022-09-12T05:40:34.644Z,100276.31
2022-09-12T05:43:38.374Z,100281.50
2022-09-12T05:46:43.415Z,100275.88
2022-09-12T05:49:48.056Z,100273.16
2022-09-12T05:52:50.605Z,100281.06
2022-09-12T05:56:11.720Z,100278.38
2022-09-12T05:59:19.308Z,100275.44
2022-09-12T06:02:22.172Z,100278.78
2022-09-12T06:05:25.317Z,100281.47
2022-09-12T06:08:28.341Z,100286.88
2022-09-12T06:11:33.378Z,100287.72
2022-09-12T06:14:36.324Z,100282.06
2022-09-12T06:17:39.137Z,100282.69
2022-09-12T06:20:41.840Z,100280.16
2022-09-12T06:23:46.236Z,100281.59
2022-09-12T06:26:50.183Z,100283.47
2022-09-12T06:29:53.035Z,100282.78
2022-09-12T06:32:56.919Z,100286.94
2022-09-12T06:36:16.038Z,100289.13
2022-09-12T06:39:23.635Z,100288.06
2022-09-12T06:42:26.580Z,100288.94
2022-09-12T06:45:32.554Z,100294.91
2022-09-12T06:48:39.609Z,100292.75
2022-09-12T06:51:44.860Z,100296.47
2022-09-12T06:54:47.845Z,100297.87
2022-09-12T06:57:50.498Z,100294.69
2022-09-12T07:01:01.290Z,100286.03
2022-09-12T07:04:04.365Z,100284.22
2022-09-12T07:07:07.084Z,100281.78
2022-09-12T07:10:11.929Z,100281.81
2022-09-12T07:13:14.766Z,100288.50
2022-09-12T07:16:19.923Z,100295.38
2022-09-12T07:19:23.164Z,100300.09
2022-09-12T07:22:25.633Z,100291.69
2022-09-12T07:25:28.624Z,100297.28
2022-09-12T07:28:33.629Z,100297.13
2022-09-12T07:31:36.499Z,100298.37
2022-09-12T07:34:39.081Z,100296.28
2022-09-12T07:37:41.879Z,100301.16
2022-09-12T07:40:46.508Z,100305.28
2022-09-12T07:43:53.614Z,100308.81
2022-09-12T07:46:56.130Z,100312.22
2022-09-12T07:49:59.216Z,100309.94
2022-09-12T07:53:03.117Z,100311.59
2022-09-12T07:56:07.781Z,100312.06
2022-09-12T07:59:10.312Z,100304.53
2022-09-12T08:02:17.518Z,100307.38
2022-09-12T08:05:20.901Z,100294.78
2022-09-12T08:08:23.806Z,100302.94
2022-09-12T08:11:28.829Z,100306.38
2022-09-12T08:14:31.476Z,100300.31
2022-09-12T08:17:34.470Z,100302.72
2022-09-12T08:20:37.146Z,100298.88
2022-09-12T08:23:40.213Z,100298.41
2022-09-12T08:26:43.264Z,100300.44
2022-09-12T08:29:46.165Z,100300.56
2022-09-12T08:32:48.717Z,100297.94
2022-09-12T08:35:52.304Z,100294.25
2022-09-12T08:39:00.034Z,100298.25
2022-09-12T08:42:06.194Z,100296.66
2022-09-12T08:45:21.857Z,100294.03
2022-09-12T08:48:25.181Z,100288.34
2022-09-12T08:51:29.383Z,100290.56
2022-09-12T08:54:33.152Z,100290.12
2022-09-12T08:57:35.711Z,100285.75
2022-09-12T09:01:08.721Z,100286.97
2022-09-12T09:04:33.030Z,100285.81
2022-09-12T09:08:17.332Z,100287.91
2022-09-12T09:11:52.685Z,100278.19
2022-09-12T09:15:22.005Z,100283.12
2022-09-12T09:18:28.804Z,100278.44
2022-09-12T09:21:41.324Z,100280.34
2022-09-12T09:24:53.435Z,100289.84
2022-09-12T09:28:03.837Z,100277.44
2022-09-12T09:31:14.439Z,100273.56
2022-09-12T09:34:23.385Z,100277.91
2022-09-12T09:37:36.757Z,100274.97
2022-09-12T09:40:58.100Z,100272.66
2022-09-12T09:44:01.236Z,100274.78
2022-09-12T09:47:05.349Z,100283.06
2022-09-12T09:50:13.958Z,100277.91
2022-09-12T09:53:34.209Z,100269.81
2022-09-12T09:56:42.572Z,100267.72
2022-09-12T09:59:45.341Z,100275.44
2022-09-12T10:03:28.812Z,100273.12
2022-09-12T10:06:37.977Z,100273.63
2022-09-12T10:09:41.447Z,100280.06
2022-09-12T10:12:45.087Z,100265.97
2022-09-12T10:16:02.915Z,100275.84
2022-09-12T10:19:05.851Z,100273.50
2022-09-12T10:22:18.218Z,100275.69
2022-09-12T10:25:25.038Z,100277.53
2022-09-12T10:28:54.064Z,100284.22
2022-09-12T10:32:01.125Z,100279.84
2022-09-12T10:35:09.045Z,100274.16
2022-09-12T10:38:21.374Z,100284.47
2022-09-12T10:41:24.724Z,100278.91
2022-09-12T10:44:32.890Z,100274.37
2022-09-12T10:47:38.004Z,100265.00
2022-09-12T10:50:43.448Z,100267.13
2022-09-12T10:53:46.883Z,100269.59
2022-09-12T10:57:07.050Z,100262.59
2022-09-12T11:00:17.790Z,100263.09
2022-09-12T11:03:53.485Z,100262.00
2022-09-12T11:07:19.928Z,100252.38
2022-09-12T11:10:38.042Z,100258.31
2022-09-12T11:13:44.958Z,100259.16
2022-09-12T11:16:56.537Z,100253.09
2022-09-12T11:20:21.626Z,100244.34
2022-09-12T11:23:30.664Z,100240.47
2022-09-12T11:26:51.673Z,100235.34
2022-09-12T11:29:58.572Z,100232.28
2022-09-12T11:33:05.746Z,100229.06
2022-09-12T11:36:20.775Z,100238.06
2022-09-12T11:39:31.236Z,100239.12
2022-09-12T11:42:38.910Z,100237.75
2022-09-12T11:45:44.611Z,100236.06
2022-09-12T11:49:19.540Z,100237.03
2022-09-12T11:52:27.152Z,100232.28
2022-09-12T11:55:39.606Z,100249.50
2022-09-12T11:58:46.597Z,100242.38
2022-09-12T12:01:52.538Z,100246.72
2022-09-12T12:05:17.749Z,100245.19
2022-09-12T12:08:25.961Z,100245.62
2022-09-12T12:11:32.246Z,100236.87
2022-09-12T12:14:55.831Z,100250.22
2022-09-12T12:18:15.289Z,100246.97
2022-09-12T12:21:28.472Z,100234.97
2022-09-12T12:24:33.858Z,100230.41
2022-09-12T12:27:51.198Z,100224.75
2022-09-12T12:30:54.098Z,100225.28
2022-09-12T12:34:03.327Z,100220.37
2022-09-12T12:37:21.221Z,100218.28
2022-09-12T12:40:27.688Z,100220.09
2022-09-12T12:43:32.260Z,100220.37
2022-09-12T12:46:38.274Z,100221.62
2022-09-12T12:49:41.712Z,100221.81
2022-09-12T12:52:55.304Z,100223.56
2022-09-12T12:55:58.224Z,100225.59
2022-09-12T12:59:04.434Z,100203.97
2022-09-12T13:02:21.106Z,100206.94
2022-09-12T13:05:26.953Z,100204.19
2022-09-12T13:08:33.533Z,100217.50
2022-09-12T13:11:39.223Z,100220.06
2022-09-12T13:14:51.811Z,100219.41
2022-09-12T13:18:04.357Z,100222.66
2022-09-12T13:21:19.818Z,100219.16
2022-09-12T13:24:23.709Z,100216.66
2022-09-12T13:27:26.606Z,100199.31
2022-09-12T13:30:33.066Z,100198.84
2022-09-12T13:33:48.193Z,100199.00
2022-09-12T13:37:12.192Z,100195.75
2022-09-12T13:40:45.568Z,100188.22
2022-09-12T13:43:49.340Z,100189.75
2022-09-12T13:46:53.246Z,100182.16
2022-09-12T13:49:56.857Z,100185.47
2022-09-12T13:53:04.305Z,100182.38
2022-09-12T13:56:07.105Z,100174.78
2022-09-12T13:59:13.375Z,100173.06
2022-09-12T14:02:20.269Z,100169.03
2022-09-12T14:05:26.295Z,100167.44
2022-09-12T14:08:29.801Z,100165.53
2022-09-12T14:11:33.929Z,100169.09
2022-09-12T14:14:42.123Z,100166.03
2022-09-12T14:17:51.870Z,100164.31
2022-09-12T14:20:57.487Z,100154.78
2022-09-12T14:24:01.347Z,100168.38
2022-09-12T14:27:05.090Z,100159.59
2022-09-12T14:30:39.352Z,100170.62
2022-09-12T14:33:50.832Z,100165.09
2022-09-12T14:36:56.263Z,100165.91
2022-09-12T14:39:59.013Z,100156.19
2022-09-12T14:43:03.059Z,100169.16
2022-09-12T14:46:30.821Z,100171.28
2022-09-12T14:49:36.673Z,100167.66
2022-09-12T14:52:40.132Z,100169.78
2022-09-12T14:55:47.409Z,100177.62
2022-09-12T14:58:50.529Z,100177.06
2022-09-12T15:02:21.490Z,100167.03
2022-09-12T15:05:26.563Z,100169.16
2022-09-12T15:08:31.273Z,100164.12
2022-09-12T15:11:33.914Z,100170.25
2022-09-12T15:14:36.784Z,100162.13
2022-09-12T15:17:39.375Z,100166.22
2022-09-12T15:20:44.619Z,100155.87
2022-09-12T15:23:49.451Z,100166.19
2022-09-12T15:26:53.724Z,100163.50
2022-09-12T15:29:56.429Z,100177.09
2022-09-12T15:33:00.146Z,100174.53
2022-09-12T15:36:02.829Z,100165.69
2022-09-12T15:39:05.980Z,100163.47
2022-09-12T15:42:11.244Z,100164.78
2022-09-12T15:45:19.919Z,100158.31
2022-09-12T15:48:22.669Z,100155.84
2022-09-12T15:51:33.475Z,100162.25
2022-09-12T15:54:36.301Z,100164.34
2022-09-12T15:57:40.448Z,100156.03
